Time;durP1;ratioP1;P1;durP2;ratioP2;P2;SDS_P1;SDS_P2;PMS_P1;PMS_P2;Temp;Humidity;BMP_temperature;BMP_pressure;BME280_temperature;BME280_humidity;BME280_pressure;Samples;Min_cycle;Max_cycle;Signal;HPM_P1;HPM_P2
2021/01/20 00:01:00;;;;;;;2.60;2.40;;;3.60;86.60;;;;;;5079226;28;20207;-76
2021/01/20 00:03:28;;;;;;;2.13;1.97;;;3.60;86.50;;;;;;5076565;28;20178;-76
2021/01/20 00:05:54;;;;;;;2.43;2.23;;;3.60;86.80;;;;;;5079881;28;20181;-76
2021/01/20 00:08:20;;;;;;;1.70;1.60;;;3.50;87.40;;;;;;5094144;28;20215;-77
2021/01/20 00:10:46;;;;;;;2.27;2.07;;;3.50;87.90;;;;;;5096426;28;20180;-75
2021/01/20 00:13:15;;;;;;;2.43;2.23;;;3.50;88.00;;;;;;5092257;28;20236;-76
2021/01/20 00:15:44;;;;;;;2.20;2.00;;;3.50;88.00;;;;;;5081824;28;20203;-76
2021/01/20 00:18:09;;;;;;;2.63;2.43;;;3.50;88.00;;;;;;5074507;28;20207;-75
2021/01/20 00:20:35;;;;;;;2.20;2.00;;;3.40;88.80;;;;;;5080037;28;20217;-75
2021/01/20 00:23:00;;;;;;;2.67;2.10;;;3.40;89.10;;;;;;5088092;28;20212;-76
2021/01/20 00:25:26;;;;;;;2.20;2.00;;;3.50;89.30;;;;;;5082013;28;20181;-77
2021/01/20 00:27:52;;;;;;;3.13;2.20;;;3.50;89.10;;;;;;5077309;28;20200;-76
2021/01/20 00:30:18;;;;;;;1.93;1.83;;;3.50;89.30;;;;;;5087532;28;20260;-76
2021/01/20 00:32:44;;;;;;;2.67;2.37;;;3.40;89.40;;;;;;5076538;28;20185;-76
2021/01/20 00:35:12;;;;;;;2.57;2.10;;;3.40;90.10;;;;;;5084817;28;20182;-76
2021/01/20 00:37:38;;;;;;;2.70;2.20;;;3.40;90.00;;;;;;5075781;28;20211;-76
2021/01/20 00:40:06;;;;;;;2.20;1.90;;;3.30;90.20;;;;;;5085394;28;20233;-75
2021/01/20 00:42:32;;;;;;;2.37;2.17;;;3.30;90.30;;;;;;5083901;28;20186;-76
2021/01/20 00:44:57;;;;;;;2.90;1.97;;;3.30;90.50;;;;;;5091083;28;20203;-76
2021/01/20 00:47:23;;;;;;;2.30;2.10;;;3.30;90.70;;;;;;5074098;28;20204;-76
2021/01/20 00:49:49;;;;;;;2.30;2.10;;;3.20;90.80;;;;;;5083083;28;20315;-76
2021/01/20 00:52:14;;;;;;;2.63;2.43;;;3.10;91.10;;;;;;5077655;28;20189;-76
2021/01/20 00:54:40;;;;;;;2.50;2.30;;;3.00;91.20;;;;;;5076749;28;20221;-76
2021/01/20 00:57:06;;;;;;;2.60;2.40;;;3.00;91.50;;;;;;5076183;28;20208;-75
2021/01/20 00:59:31;;;;;;;2.57;2.37;;;2.90;91.80;;;;;;5086113;28;20178;-76
2021/01/20 01:02:00;;;;;;;2.33;2.13;;;2.80;92.10;;;;;;5080624;28;20199;-76
2021/01/20 01:04:26;;;;;;;2.90;2.20;;;2.70;92.50;;;;;;5083671;28;20211;-75
2021/01/20 01:06:52;;;;;;;2.33;2.07;;;2.80;92.50;;;;;;5087130;28;20168;-75
2021/01/20 01:09:19;;;;;;;2.23;1.93;;;2.80;92.60;;;;;;5082247;28;20264;-77
2021/01/20 01:11:45;;;;;;;2.53;2.33;;;2.80;92.60;;;;;;5079585;28;21041;-76
2021/01/20 01:14:11;;;;;;;3.53;2.57;;;2.80;92.70;;;;;;5091243;28;20296;-76
2021/01/20 01:16:38;;;;;;;2.60;2.40;;;2.70;93.00;;;;;;5083892;28;20180;-75
2021/01/20 01:19:04;;;;;;;2.70;2.33;;;2.60;93.20;;;;;;5081014;28;20261;-76
2021/01/20 01:21:30;;;;;;;3.10;2.30;;;2.50;93.60;;;;;;5085667;28;20269;-75
2021/01/20 01:23:55;;;;;;;2.20;2.00;;;2.40;93.70;;;;;;5082240;28;20268;-75
2021/01/20 01:26:21;;;;;;;4.43;2.10;;;2.40;94.00;;;;;;5083344;28;20212;-76
2021/01/20 01:28:47;;;;;;;5.20;2.03;;;2.40;93.80;;;;;;5082713;28;20207;-76
2021/01/20 01:31:12;;;;;;;2.30;2.10;;;2.50;94.00;;;;;;5082705;28;20180;-75
2021/01/20 01:33:38;;;;;;;2.40;2.20;;;2.70;93.80;;;;;;5084817;28;20242;-77
2021/01/20 01:36:04;;;;;;;2.37;2.17;;;2.80;93.50;;;;;;5091563;28;20191;-77
2021/01/20 01:38:30;;;;;;;2.07;1.97;;;2.80;93.30;;;;;;5091454;28;20286;-76
2021/01/20 01:40:55;;;;;;;2.40;2.20;;;2.80;93.30;;;;;;5080395;28;20230;-76
2021/01/20 01:43:23;;;;;;;3.10;2.30;;;2.80;93.40;;;;;;5072341;28;20192;-75
2021/01/20 01:45:49;;;;;;;2.20;2.00;;;2.80;93.60;;;;;;5077242;28;20178;-76
2021/01/20 01:48:15;;;;;;;2.23;2.03;;;2.70;93.70;;;;;;5078942;28;20691;-76
2021/01/20 01:50:41;;;;;;;2.40;2.17;;;2.60;93.80;;;;;;5079729;28;20202;-76
2021/01/20 01:53:11;;;;;;;2.23;2.03;;;2.60;94.00;;;;;;5079790;28;20189;-76
2021/01/20 01:55:37;;;;;;;1.93;1.73;;;2.50;94.10;;;;;;5088752;28;20186;-76
2021/01/20 01:58:03;;;;;;;2.47;2.23;;;2.50;94.30;;;;;;5083840;28;20214;-76
2021/01/20 02:00:29;;;;;;;2.50;2.07;;;2.50;94.40;;;;;;5074479;28;20216;-76
2021/01/20 02:02:55;;;;;;;3.83;1.83;;;2.40;94.50;;;;;;5077380;28;20564;-75
2021/01/20 02:05:21;;;;;;;2.37;2.17;;;2.40;94.80;;;;;;5084372;28;20637;-76
2021/01/20 02:07:47;;;;;;;2.50;2.20;;;2.30;94.80;;;;;;5083181;28;20198;-76
2021/01/20 02:10:13;;;;;;;2.40;2.20;;;2.40;94.90;;;;;;5085667;28;20215;-77
2021/01/20 02:13:07;;;;;;;2.40;2.20;;;2.50;94.60;;;;;;5075023;28;20192;-76
2021/01/20 02:16:10;;;;;;;2.33;2.13;;;2.60;94.30;;;;;;5080636;28;20672;-77
2021/01/20 02:18:37;;;;;;;1.90;1.80;;;2.70;94.30;;;;;;5074484;28;20253;-77
2021/01/20 02:21:09;;;;;;;2.10;2.00;;;2.70;94.20;;;;;;5073721;28;20622;-76
2021/01/20 02:23:40;;;;;;;2.67;2.00;;;2.90;94.00;;;;;;5083362;28;20198;-77
2021/01/20 02:26:13;;;;;;;2.00;1.80;;;2.90;93.90;;;;;;5082742;28;20181;-77
2021/01/20 02:29:08;;;;;;;1.87;1.77;;;3.00;93.80;;;;;;5078139;28;20699;-76
2021/01/20 02:31:34;;;;;;;2.07;1.90;;;3.10;93.80;;;;;;5081600;28;20567;-77
2021/01/20 02:34:03;;;;;;;2.23;2.00;;;3.10;93.80;;;;;;5083166;28;20624;-76
2021/01/20 02:36:30;;;;;;;2.00;1.80;;;3.10;93.70;;;;;;5073928;28;20685;-77
2021/01/20 02:38:57;;;;;;;2.70;1.90;;;3.10;93.60;;;;;;5083611;28;20217;-76
2021/01/20 02:41:28;;;;;;;2.10;1.90;;;3.20;93.60;;;;;;5077592;28;20339;-76
2021/01/20 02:43:58;;;;;;;1.83;1.73;;;3.20;93.60;;;;;;5083691;28;20230;-76
2021/01/20 02:46:23;;;;;;;1.93;1.83;;;3.20;93.50;;;;;;5077557;28;20211;-76
2021/01/20 02:48:50;;;;;;;2.10;1.97;;;3.20;93.30;;;;;;5076327;28;20192;-76
2021/01/20 02:51:23;;;;;;;2.43;2.20;;;3.30;93.20;;;;;;5078954;28;20261;-76
2021/01/20 02:53:51;;;;;;;1.77;1.60;;;3.30;93.10;;;;;;5088710;28;20202;-76
2021/01/20 02:56:17;;;;;;;1.83;1.73;;;3.40;92.90;;;;;;5083812;28;20550;-76
2021/01/20 02:58:46;;;;;;;2.13;1.87;;;3.50;92.70;;;;;;5077702;28;20195;-76
2021/01/20 03:01:14;;;;;;;3.27;2.10;;;3.60;92.50;;;;;;5073742;28;20237;-76
2021/01/20 03:03:41;;;;;;;2.57;2.37;;;3.60;92.20;;;;;;5085619;28;20687;-75
2021/01/20 03:06:08;;;;;;;2.37;1.90;;;3.60;92.20;;;;;;5080407;28;20206;-76
2021/01/20 03:08:34;;;;;;;2.37;2.10;;;3.60;92.20;;;;;;5076405;28;20210;-76
2021/01/20 03:11:06;;;;;;;2.40;1.97;;;3.50;92.30;;;;;;5084736;28;20172;-76
2021/01/20 03:13:36;;;;;;;2.40;2.03;;;3.30;92.50;;;;;;5079229;28;20186;-76
2021/01/20 03:16:04;;;;;;;2.47;2.27;;;3.10;92.90;;;;;;5080748;28;20174;-76
2021/01/20 03:18:29;;;;;;;2.67;2.10;;;3.00;93.30;;;;;;5082627;28;20234;-75
2021/01/20 03:20:55;;;;;;;2.37;2.17;;;3.00;93.50;;;;;;5092189;28;20198;-77
2021/01/20 03:23:21;;;;;;;2.17;1.97;;;2.90;93.60;;;;;;5086021;28;20265;-77
2021/01/20 03:25:46;;;;;;;2.10;1.90;;;2.90;93.70;;;;;;5081188;28;20203;-76
2021/01/20 03:28:12;;;;;;;2.40;2.17;;;2.90;93.80;;;;;;5087243;28;20237;-75
2021/01/20 03:30:38;;;;;;;4.00;2.10;;;2.80;94.00;;;;;;5084404;28;20646;-75
2021/01/20 03:33:03;;;;;;;2.67;2.20;;;2.70;94.10;;;;;;5081138;28;20208;-75
2021/01/20 03:35:29;;;;;;;2.60;2.40;;;2.70;94.40;;;;;;5078259;28;20212;-77
2021/01/20 03:37:54;;;;;;;2.20;2.00;;;2.60;94.50;;;;;;5086133;28;20835;-77
2021/01/20 03:40:20;;;;;;;3.23;2.50;;;2.70;94.60;;;;;;5080398;28;20209;-75
2021/01/20 03:42:46;;;;;;;2.23;2.03;;;2.60;94.70;;;;;;5071617;28;20185;-77
2021/01/20 03:45:12;;;;;;;2.63;1.70;;;2.70;94.40;;;;;;5080870;28;20264;-78
2021/01/20 03:47:37;;;;;;;2.30;2.10;;;2.80;94.30;;;;;;5083439;28;20209;-76
2021/01/20 03:50:03;;;;;;;2.67;2.47;;;2.80;94.20;;;;;;5083325;28;20185;-75
2021/01/20 03:52:29;;;;;;;2.20;2.00;;;2.80;94.20;;;;;;5082175;28;20270;-76
2021/01/20 03:54:57;;;;;;;1.90;1.80;;;2.70;94.50;;;;;;5074454;28;20210;-76
2021/01/20 03:57:23;;;;;;;2.67;2.00;;;2.70;94.70;;;;;;5074460;28;20206;-75
2021/01/20 03:59:49;;;;;;;2.33;1.80;;;2.70;95.00;;;;;;5075473;28;20188;-76
2021/01/20 04:02:14;;;;;;;2.50;2.03;;;2.80;94.90;;;;;;5077513;28;20192;-76
2021/01/20 04:04:40;;;;;;;1.73;1.60;;;2.80;94.90;;;;;;5075495;28;20191;-75
2021/01/20 04:07:05;;;;;;;2.17;1.97;;;2.80;94.90;;;;;;5077302;28;20265;-76
2021/01/20 04:09:31;;;;;;;2.33;2.13;;;2.80;94.90;;;;;;5073852;28;20265;-77
2021/01/20 04:11:57;;;;;;;2.10;2.00;;;2.70;95.10;;;;;;5076867;28;20193;-75
2021/01/20 04:14:23;;;;;;;2.70;2.13;;;2.70;95.20;;;;;;5080228;28;20228;-76
2021/01/20 04:16:48;;;;;;;1.93;1.77;;;2.60;95.40;;;;;;5079369;28;20246;-77
2021/01/20 04:19:15;;;;;;;2.30;2.10;;;2.60;95.50;;;;;;5071060;28;20193;-77
2021/01/20 04:21:41;;;;;;;2.03;1.80;;;2.60;95.60;;;;;;5075042;28;20239;-77
2021/01/20 04:24:07;;;;;;;1.97;1.87;;;2.60;95.60;;;;;;5075934;28;20226;-76
2021/01/20 04:26:32;;;;;;;2.67;2.07;;;2.70;95.40;;;;;;5080554;28;20193;-76
2021/01/20 04:28:58;;;;;;;2.53;2.03;;;2.60;95.40;;;;;;5072860;28;20250;-76
2021/01/20 04:31:24;;;;;;;2.20;2.00;;;2.60;95.40;;;;;;5076669;28;20186;-76
2021/01/20 04:33:50;;;;;;;2.07;1.87;;;2.80;95.00;;;;;;5087052;28;20635;-76
2021/01/20 04:36:15;;;;;;;2.20;2.00;;;2.80;94.90;;;;;;5078172;28;20193;-76
2021/01/20 04:38:41;;;;;;;2.33;1.80;;;2.90;94.60;;;;;;5078994;28;20204;-76
2021/01/20 04:41:07;;;;;;;2.13;1.93;;;2.80;94.70;;;;;;5083755;28;20217;-74
2021/01/20 04:43:32;;;;;;;2.10;1.83;;;2.80;94.80;;;;;;5081513;28;20175;-76
2021/01/20 04:45:59;;;;;;;3.10;1.90;;;2.90;94.70;;;;;;5086499;28;20562;-76
2021/01/20 04:48:31;;;;;;;2.07;1.83;;;2.90;94.70;;;;;;5078953;28;20194;-76
2021/01/20 04:51:00;;;;;;;1.97;1.80;;;2.90;94.60;;;;;;5091446;28;20183;-76
2021/01/20 04:53:26;;;;;;;1.80;1.70;;;2.90;94.50;;;;;;5086503;28;20181;-76
2021/01/20 04:55:55;;;;;;;1.93;1.80;;;3.00;94.40;;;;;;5081017;28;20186;-76
2021/01/20 04:58:21;;;;;;;2.23;2.10;;;2.90;94.30;;;;;;5072125;28;20203;-75
2021/01/20 05:00:47;;;;;;;1.93;1.83;;;2.90;94.30;;;;;;5084721;28;20217;-76
2021/01/20 05:03:13;;;;;;;2.80;2.20;;;2.80;94.40;;;;;;5082504;28;20185;-76
2021/01/20 05:05:38;;;;;;;2.10;1.90;;;2.80;94.50;;;;;;5079878;28;20175;-76
2021/01/20 05:08:05;;;;;;;2.27;2.07;;;2.70;94.50;;;;;;5087087;28;20214;-75
2021/01/20 05:10:31;;;;;;;2.90;1.87;;;2.60;94.60;;;;;;5080131;28;20198;-75
2021/01/20 05:12:57;;;;;;;2.47;2.13;;;2.50;95.00;;;;;;5079525;28;20189;-75
2021/01/20 05:15:35;;;;;;;2.40;2.20;;;2.50;95.30;;;;;;5089034;28;20193;-75
2021/01/20 05:18:01;;;;;;;2.80;2.60;;;2.60;95.00;;;;;;5078354;28;20207;-76
2021/01/20 05:20:34;;;;;;;2.77;2.30;;;2.60;95.00;;;;;;5082070;28;20846;-75
2021/01/20 05:23:03;;;;;;;2.30;2.00;;;2.70;94.90;;;;;;5080778;28;20192;-76
2021/01/20 05:25:35;;;;;;;2.10;1.90;;;2.70;94.80;;;;;;5076573;28;20216;-76
2021/01/20 05:28:23;;;;;;;2.10;2.00;;;2.70;94.90;;;;;;5081278;28;20222;-75
2021/01/20 05:30:48;;;;;;;2.07;1.83;;;2.70;94.80;;;;;;5075251;28;20192;-74
2021/01/20 05:33:19;;;;;;;1.87;1.77;;;2.70;94.80;;;;;;5082100;28;20190;-74
2021/01/20 05:36:01;;;;;;;2.20;2.00;;;2.80;94.80;;;;;;5078948;28;20195;-76
2021/01/20 05:38:36;;;;;;;2.40;2.17;;;2.80;94.70;;;;;;5071952;28;20204;-75
2021/01/20 05:41:14;;;;;;;2.30;2.07;;;2.90;94.70;;;;;;5085220;28;20215;-74
2021/01/20 05:43:40;;;;;;;1.90;1.80;;;2.90;94.80;;;;;;5084044;28;20291;-75
2021/01/20 05:46:05;;;;;;;2.43;2.10;;;2.90;94.80;;;;;;5088951;28;20254;-75
2021/01/20 05:48:31;;;;;;;2.73;1.77;;;2.90;94.70;;;;;;5082279;28;20575;-75
2021/01/20 05:50:58;;;;;;;2.23;2.03;;;2.90;94.50;;;;;;5082864;28;20181;-75
2021/01/20 05:53:24;;;;;;;2.37;1.90;;;3.10;94.30;;;;;;5081610;28;20217;-74
2021/01/20 05:56:04;;;;;;;1.97;1.87;;;3.00;94.00;;;;;;5076789;28;20308;-75
2021/01/20 05:58:40;;;;;;;2.20;2.00;;;3.00;94.00;;;;;;5085740;28;20198;-76
2021/01/20 06:01:07;;;;;;;2.00;1.80;;;3.10;93.90;;;;;;5079310;28;20295;-77
2021/01/20 06:03:34;;;;;;;2.00;1.80;;;3.10;93.80;;;;;;5074580;28;20179;-76
2021/01/20 06:06:02;;;;;;;2.40;2.20;;;3.10;93.70;;;;;;5082070;28;20243;-76
2021/01/20 06:08:32;;;;;;;2.30;2.10;;;3.20;93.50;;;;;;5080942;28;20199;-76
2021/01/20 06:10:58;;;;;;;2.57;2.37;;;3.20;93.30;;;;;;5081728;28;20187;-78
2021/01/20 06:13:23;;;;;;;2.30;2.10;;;3.20;93.40;;;;;;5077384;28;20200;-74
2021/01/20 06:15:53;;;;;;;2.37;2.17;;;3.10;93.40;;;;;;5082043;28;21081;-73
2021/01/20 06:18:24;;;;;;;2.77;2.33;;;3.10;93.50;;;;;;5078578;28;20213;-72
2021/01/20 06:20:51;;;;;;;4.43;2.40;;;3.00;93.40;;;;;;5074217;28;20208;-73
2021/01/20 06:23:22;;;;;;;3.07;2.80;;;3.00;93.40;;;;;;5073447;28;20176;-74
2021/01/20 06:25:49;;;;;;;2.63;2.43;;;3.00;93.30;;;;;;5080132;28;20190;-73
2021/01/20 06:28:15;;;;;;;3.40;2.97;;;3.00;93.30;;;;;;5080656;28;20205;-72
2021/01/20 06:30:43;;;;;;;3.43;3.13;;;3.10;93.00;;;;;;5075221;28;20196;-73
2021/01/20 06:33:14;;;;;;;3.40;3.10;;;3.10;92.90;;;;;;5076680;28;20183;-73
2021/01/20 06:35:48;;;;;;;3.43;2.97;;;3.10;92.90;;;;;;5063367;28;20269;-71
2021/01/20 06:38:29;;;;;;;2.80;2.60;;;3.20;92.60;;;;;;5084192;28;20206;-73
2021/01/20 06:41:01;;;;;;;3.73;3.20;;;3.20;92.70;;;;;;5078313;28;20614;-73
2021/01/20 06:43:34;;;;;;;3.53;2.80;;;3.20;92.50;;;;;;5073782;28;20225;-73
2021/01/20 06:46:19;;;;;;;4.37;3.00;;;3.30;92.50;;;;;;5078681;28;20595;-74
2021/01/20 06:48:54;;;;;;;3.20;2.90;;;3.30;92.10;;;;;;5075522;28;20269;-73
2021/01/20 06:51:26;;;;;;;2.97;2.73;;;3.30;92.30;;;;;;5083426;28;20201;-73
2021/01/20 06:54:00;;;;;;;5.07;3.40;;;3.30;92.30;;;;;;5083072;28;20258;-72
2021/01/20 06:56:36;;;;;;;3.53;3.23;;;3.20;92.50;;;;;;5084148;28;20180;-72
2021/01/20 06:59:21;;;;;;;3.70;3.27;;;3.10;92.70;;;;;;5082327;28;20243;-72
2021/01/20 07:02:02;;;;;;;3.63;3.07;;;3.10;92.70;;;;;;5084495;28;20233;-73
2021/01/20 07:04:37;;;;;;;3.57;3.10;;;3.10;93.00;;;;;;5084214;28;20221;-73
2021/01/20 07:07:07;;;;;;;3.63;3.33;;;3.00;93.20;;;;;;5076957;28;20235;-73
2021/01/20 07:09:51;;;;;;;5.63;3.80;;;2.90;93.20;;;;;;5084622;28;20175;-71
2021/01/20 07:12:17;;;;;;;3.23;3.00;;;2.90;93.40;;;;;;5071802;28;20174;-73
2021/01/20 07:14:43;;;;;;;3.33;3.00;;;2.90;93.30;;;;;;5077255;28;20178;-72
2021/01/20 07:17:12;;;;;;;5.07;3.20;;;2.90;93.30;;;;;;5074350;28;20241;-72
2021/01/20 07:19:38;;;;;;;3.97;3.57;;;2.90;93.30;;;;;;5076479;28;20549;-73
2021/01/20 07:22:05;;;;;;;5.23;3.63;;;2.90;93.10;;;;;;5080788;28;20212;-73
2021/01/20 07:24:31;;;;;;;3.73;3.00;;;2.90;93.10;;;;;;5081539;28;20259;-73
2021/01/20 07:27:09;;;;;;;4.77;4.23;;;2.90;93.20;;;;;;5079924;28;20357;-73
2021/01/20 07:29:36;;;;;;;13.47;10.90;;;2.90;93.70;;;;;;5092132;28;20228;-74
2021/01/20 07:32:02;;;;;;;10.17;7.77;;;2.90;93.90;;;;;;5087388;28;20664;-74
2021/01/20 07:34:39;;;;;;;8.70;6.77;;;2.90;94.00;;;;;;5081711;28;20241;-74
2021/01/20 07:37:16;;;;;;;10.63;8.37;;;2.90;94.00;;;;;;5079121;28;20692;-72
2021/01/20 07:39:43;;;;;;;6.90;5.17;;;3.00;94.00;;;;;;5079342;28;20182;-73
2021/01/20 07:42:10;;;;;;;6.40;5.73;;;3.00;94.30;;;;;;5080751;28;20219;-74
2021/01/20 07:44:46;;;;;;;5.80;4.90;;;3.20;94.30;;;;;;5084519;28;20214;-72
2021/01/20 07:47:12;;;;;;;6.50;5.60;;;3.30;93.80;;;;;;5073812;28;20204;-72
2021/01/20 07:49:38;;;;;;;7.83;4.60;;;3.40;93.50;;;;;;5074394;28;20719;-73
2021/01/20 07:52:11;;;;;;;5.30;3.90;;;3.50;93.20;;;;;;5079500;28;20185;-73
2021/01/20 07:54:50;;;;;;;5.40;4.37;;;3.60;93.30;;;;;;5080496;28;20215;-74
2021/01/20 07:57:20;;;;;;;4.03;3.50;;;3.70;92.40;;;;;;5076951;28;20589;-73
2021/01/20 08:00:05;;;;;;;5.53;4.60;;;3.70;92.20;;;;;;5090655;28;20563;-74
2021/01/20 08:02:31;;;;;;;30.20;21.83;;;3.80;91.30;;;;;;5072387;28;20196;-73
2021/01/20 08:05:01;;;;;;;16.00;11.40;;;3.90;91.40;;;;;;5086279;28;20182;-73
2021/01/20 08:07:26;;;;;;;12.57;8.37;;;4.00;91.00;;;;;;5081772;28;20226;-73
2021/01/20 08:09:52;;;;;;;11.07;7.73;;;4.00;90.90;;;;;;5082699;28;20222;-72
2021/01/20 08:12:28;;;;;;;5.77;5.17;;;4.10;90.60;;;;;;5084614;28;20230;-73
2021/01/20 08:14:54;;;;;;;7.57;4.77;;;4.10;90.40;;;;;;5085674;28;20180;-74
2021/01/20 08:17:21;;;;;;;5.40;4.10;;;4.20;90.10;;;;;;5084457;28;20211;-73
2021/01/20 08:19:48;;;;;;;5.80;3.80;;;4.30;90.00;;;;;;5074077;28;20549;-73
2021/01/20 08:22:15;;;;;;;3.93;3.30;;;4.40;88.50;;;;;;5076320;28;20210;-74
2021/01/20 08:24:48;;;;;;;4.07;3.67;;;4.50;87.70;;;;;;5079720;28;20267;-74
2021/01/20 08:27:14;;;;;;;5.80;4.30;;;4.50;87.80;;;;;;5076347;28;20621;-74
2021/01/20 08:29:53;;;;;;;4.33;3.40;;;4.50;88.30;;;;;;5076416;28;20187;-73
2021/01/20 08:32:20;;;;;;;4.77;3.90;;;4.60;86.80;;;;;;5084680;28;20660;-75
2021/01/20 08:34:50;;;;;;;5.17;3.83;;;4.60;86.70;;;;;;5082073;28;20182;-74
2021/01/20 08:37:18;;;;;;;5.30;3.50;;;4.70;86.10;;;;;;5075357;28;20397;-74
2021/01/20 08:39:54;;;;;;;4.60;3.40;;;4.70;86.10;;;;;;5080812;28;20459;-74
2021/01/20 08:42:30;;;;;;;4.00;3.47;;;4.70;85.90;;;;;;5073665;28;20727;-74
2021/01/20 08:45:05;;;;;;;5.33;3.33;;;4.80;85.30;;;;;;5080732;28;20578;-75
2021/01/20 08:47:33;;;;;;;4.80;3.80;;;4.90;84.50;;;;;;5075560;28;20197;-75
2021/01/20 08:49:59;;;;;;;4.07;3.63;;;4.90;84.70;;;;;;5078195;28;20215;-75
2021/01/20 08:52:24;;;;;;;4.37;3.50;;;4.90;85.30;;;;;;5089747;28;20184;-75
2021/01/20 08:54:51;;;;;;;4.80;3.70;;;4.90;86.00;;;;;;5082702;28;20188;-73
2021/01/20 08:57:18;;;;;;;5.40;4.20;;;4.80;86.30;;;;;;5078733;28;20208;-73
2021/01/20 08:59:56;;;;;;;6.67;3.93;;;4.80;86.20;;;;;;5082946;28;20182;-73
2021/01/20 09:02:23;;;;;;;5.40;4.30;;;4.90;85.60;;;;;;5080098;28;20198;-75
2021/01/20 09:04:49;;;;;;;4.47;3.97;;;4.90;85.30;;;;;;5078646;28;20259;-74
2021/01/20 09:07:16;;;;;;;5.27;4.17;;;4.90;85.50;;;;;;5074781;28;20201;-73
2021/01/20 09:09:43;;;;;;;5.70;3.90;;;4.90;85.80;;;;;;5076393;28;20680;-74
2021/01/20 09:12:09;;;;;;;6.53;4.83;;;4.90;86.00;;;;;;5094691;28;20193;-74
2021/01/20 09:14:34;;;;;;;5.67;4.20;;;4.90;86.10;;;;;;5082352;28;20199;-74
2021/01/20 09:17:01;;;;;;;5.43;4.13;;;4.90;86.20;;;;;;5074375;28;20221;-74
2021/01/20 09:19:27;;;;;;;4.90;4.40;;;4.90;86.60;;;;;;5090914;28;20627;-74
2021/01/20 09:21:53;;;;;;;5.57;4.50;;;4.80;86.60;;;;;;5088738;28;20727;-74
2021/01/20 09:24:18;;;;;;;5.43;4.87;;;4.70;86.70;;;;;;5093067;28;20185;-74
2021/01/20 09:26:44;;;;;;;5.47;4.93;;;4.80;87.00;;;;;;5084309;28;20220;-73
2021/01/20 09:29:10;;;;;;;6.07;4.13;;;4.70;87.50;;;;;;5079667;28;20194;-73
2021/01/20 09:31:35;;;;;;;5.33;4.00;;;4.70;87.80;;;;;;5087207;28;20611;-73
2021/01/20 09:34:01;;;;;;;6.20;5.13;;;4.70;86.30;;;;;;5081273;28;20685;-73
2021/01/20 09:36:27;;;;;;;5.63;4.97;;;4.80;85.90;;;;;;5083326;28;20434;-76
2021/01/20 09:38:53;;;;;;;5.03;4.50;;;4.80;85.50;;;;;;5077750;28;20207;-74
2021/01/20 09:41:19;;;;;;;4.70;4.17;;;4.90;85.30;;;;;;5073415;28;20274;-74
2021/01/20 09:43:45;;;;;;;5.70;4.63;;;5.00;85.20;;;;;;5078007;28;20182;-74
2021/01/20 09:46:11;;;;;;;4.60;4.20;;;5.20;83.90;;;;;;5082395;28;20241;-75
2021/01/20 09:48:37;;;;;;;9.23;5.03;;;5.40;83.10;;;;;;5078765;28;20238;-74
2021/01/20 09:51:03;;;;;;;6.10;4.50;;;5.60;84.30;;;;;;5080731;28;20197;-75
2021/01/20 09:53:28;;;;;;;5.47;4.97;;;5.70;84.20;;;;;;5082786;28;20269;-74
2021/01/20 09:55:54;;;;;;;5.97;4.93;;;6.00;83.00;;;;;;5079680;28;20279;-75
2021/01/20 09:58:20;;;;;;;5.63;4.97;;;6.10;79.10;;;;;;5082104;28;20588;-74
2021/01/20 10:00:46;;;;;;;5.63;4.40;;;6.20;78.50;;;;;;5083110;28;20337;-76
2021/01/20 10:03:12;;;;;;;6.47;4.27;;;6.30;75.90;;;;;;5083994;28;20264;-74
2021/01/20 10:05:37;;;;;;;6.23;4.43;;;6.30;76.10;;;;;;5076725;28;20694;-73
2021/01/20 10:08:03;;;;;;;7.53;4.13;;;6.40;75.10;;;;;;5077365;28;20210;-74
2021/01/20 10:10:30;;;;;;;5.93;4.03;;;6.50;75.10;;;;;;5082699;28;20192;-76
2021/01/20 10:12:56;;;;;;;5.97;4.73;;;6.50;75.40;;;;;;5082407;28;20192;-75
2021/01/20 10:15:25;;;;;;;5.93;4.70;;;6.60;73.90;;;;;;5086408;28;20182;-74
2021/01/20 10:17:52;;;;;;;6.57;4.80;;;6.80;73.50;;;;;;5083030;28;20203;-75
2021/01/20 10:20:18;;;;;;;7.30;6.03;;;7.00;73.30;;;;;;5072035;28;20205;-74
2021/01/20 10:22:44;;;;;;;9.47;5.13;;;7.20;71.60;;;;;;5082696;28;20205;-75
2021/01/20 10:25:11;;;;;;;6.93;5.33;;;7.30;69.80;;;;;;5077909;28;20179;-74
2021/01/20 10:27:37;;;;;;;5.63;4.87;;;7.50;68.50;;;;;;5078066;28;20260;-74
2021/01/20 10:30:08;;;;;;;11.13;10.33;;;7.80;68.30;;;;;;5072543;28;20178;-76
2021/01/20 10:32:34;;;;;;;5.60;4.20;;;8.10;65.40;;;;;;5085302;28;20174;-74
2021/01/20 10:35:00;;;;;;;6.87;4.43;;;8.30;64.30;;;;;;5077129;28;20179;-75
2021/01/20 10:37:26;;;;;;;5.40;4.90;;;8.60;64.40;;;;;;5075867;28;20285;-78
2021/01/20 10:39:52;;;;;;;6.20;5.60;;;8.80;65.00;;;;;;5072934;28;20209;-75
2021/01/20 10:42:18;;;;;;;7.53;5.93;;;9.10;64.20;;;;;;5083616;28;20577;-75
2021/01/20 10:44:47;;;;;;;7.87;5.23;;;9.30;62.30;;;;;;5078365;28;20178;-75
2021/01/20 10:47:12;;;;;;;5.93;4.60;;;9.30;60.50;;;;;;5075697;28;20209;-74
2021/01/20 10:49:38;;;;;;;4.70;4.30;;;9.10;59.90;;;;;;5079198;28;20181;-77
2021/01/20 10:52:04;;;;;;;5.03;4.53;;;8.90;60.10;;;;;;5071598;28;20187;-75
2021/01/20 10:54:29;;;;;;;5.97;5.37;;;8.60;60.80;;;;;;5082118;28;20182;-75
2021/01/20 10:56:55;;;;;;;12.47;10.73;;;8.40;62.10;;;;;;5074447;28;20937;-77
2021/01/20 10:59:21;;;;;;;9.87;8.77;;;8.30;63.70;;;;;;5078498;28;20190;-74
2021/01/20 11:01:46;;;;;;;8.93;6.17;;;8.60;64.30;;;;;;5084928;28;20206;-77
2021/01/20 11:04:12;;;;;;;8.60;7.70;;;8.80;62.00;;;;;;5079117;28;20552;-77
2021/01/20 11:06:38;;;;;;;6.53;5.10;;;9.10;62.80;;;;;;5083170;28;20167;-76
2021/01/20 11:09:04;;;;;;;6.40;4.80;;;9.30;59.50;;;;;;5083422;28;20729;-75
2021/01/20 11:11:29;;;;;;;5.88;5.20;;;9.40;58.40;;;;;;5083386;28;20178;-76
2021/01/20 11:13:55;;;;;;;7.43;5.97;;;9.60;58.20;;;;;;5075986;28;20210;-77
2021/01/20 11:16:20;;;;;;;8.18;5.88;;;9.60;58.80;;;;;;5073497;28;20256;-76
2021/01/20 11:18:46;;;;;;;8.60;7.45;;;9.50;59.40;;;;;;5071923;28;20229;-74
2021/01/20 11:21:14;;;;;;;11.88;9.10;;;9.50;59.80;;;;;;5073699;28;20256;-77
2021/01/20 11:23:42;;;;;;;13.02;9.45;;;9.50;59.50;;;;;;5070843;28;20171;-77
2021/01/20 11:26:09;;;;;;;10.13;9.18;;;9.50;59.40;;;;;;5079004;28;20205;-74
2021/01/20 11:28:35;;;;;;;8.93;7.63;;;9.40;58.60;;;;;;5077271;28;20205;-74
2021/01/20 11:31:01;;;;;;;8.50;7.60;;;9.20;58.40;;;;;;5076762;28;20269;-74
2021/01/20 11:33:29;;;;;;;7.00;6.32;;;9.10;58.90;;;;;;5082613;28;20186;-75
2021/01/20 11:35:54;;;;;;;7.50;6.30;;;8.90;59.60;;;;;;5079586;28;20213;-75
2021/01/20 11:38:20;;;;;;;9.13;7.13;;;8.80;60.20;;;;;;5076443;28;20593;-75
2021/01/20 11:40:46;;;;;;;7.83;5.57;;;8.60;61.20;;;;;;5079972;28;20211;-78
2021/01/20 11:43:12;;;;;;;7.40;6.70;;;8.50;61.30;;;;;;5076790;28;20175;-76
2021/01/20 11:45:38;;;;;;;6.30;4.67;;;8.30;62.20;;;;;;5080593;28;20266;-74
2021/01/20 11:48:05;;;;;;;6.27;4.43;;;8.10;63.50;;;;;;5088412;28;20198;-74
2021/01/20 11:50:31;;;;;;;5.57;4.13;;;8.00;64.10;;;;;;5080262;28;20181;-74
2021/01/20 11:52:57;;;;;;;5.53;4.73;;;8.00;63.60;;;;;;5082574;28;20174;-76
2021/01/20 11:55:24;;;;;;;5.03;4.53;;;8.00;64.50;;;;;;5077590;28;20188;-75
2021/01/20 11:57:50;;;;;;;7.93;4.40;;;8.00;63.60;;;;;;5079503;28;20259;-77
2021/01/20 12:00:17;;;;;;;6.23;4.40;;;7.90;63.90;;;;;;5087307;28;20210;-75
2021/01/20 12:02:43;;;;;;;8.67;4.40;;;7.70;64.80;;;;;;5082593;28;20602;-76
2021/01/20 12:05:11;;;;;;;7.63;5.17;;;7.60;66.00;;;;;;5078569;28;20206;-77
2021/01/20 12:07:37;;;;;;;7.97;4.73;;;7.70;66.40;;;;;;5080336;28;20282;-77
2021/01/20 12:10:04;;;;;;;5.27;4.77;;;7.70;66.40;;;;;;5076298;28;20175;-76
2021/01/20 12:12:30;;;;;;;5.93;4.70;;;7.70;67.20;;;;;;5086809;28;20185;-76
2021/01/20 12:14:56;;;;;;;5.20;4.60;;;7.70;67.30;;;;;;5084879;28;20179;-76
2021/01/20 12:17:21;;;;;;;4.60;4.20;;;7.70;67.30;;;;;;5083583;28;20202;-76
2021/01/20 12:19:47;;;;;;;5.30;4.80;;;7.80;67.00;;;;;;5081354;28;20208;-77
2021/01/20 12:22:13;;;;;;;7.27;5.43;;;7.90;66.80;;;;;;5077107;28;20203;-78
2021/01/20 12:24:39;;;;;;;5.80;4.70;;;8.00;66.60;;;;;;5078679;28;20179;-80
2021/01/20 12:27:04;;;;;;;9.70;5.80;;;8.20;66.90;;;;;;5075879;28;20713;-77
2021/01/20 12:29:30;;;;;;;5.33;4.33;;;8.40;66.20;;;;;;5076615;28;20179;-77
2021/01/20 12:31:56;;;;;;;4.93;4.30;;;8.40;64.50;;;;;;5076697;28;20265;-77
2021/01/20 12:34:21;;;;;;;5.67;4.33;;;8.60;63.70;;;;;;5073605;28;20194;-77
2021/01/20 12:36:48;;;;;;;6.63;4.23;;;8.70;63.00;;;;;;5086004;28;20239;-78
2021/01/20 12:39:14;;;;;;;6.33;4.20;;;8.80;62.20;;;;;;5082400;28;20174;-77
2021/01/20 12:41:39;;;;;;;4.83;3.70;;;8.90;61.60;;;;;;5080121;28;20209;-77
2021/01/20 12:44:06;;;;;;;5.97;4.07;;;8.80;61.30;;;;;;5079576;28;20649;-78
2021/01/20 12:46:31;;;;;;;6.47;4.70;;;8.70;61.90;;;;;;5078752;28;20193;-77
2021/01/20 12:48:58;;;;;;;6.00;3.63;;;8.50;63.20;;;;;;5085065;28;20198;-78
2021/01/20 12:51:23;;;;;;;6.30;3.53;;;8.40;62.60;;;;;;5076849;28;20183;-79
2021/01/20 12:53:49;;;;;;;5.03;4.07;;;8.30;63.20;;;;;;5082901;28;20271;-78
2021/01/20 12:56:14;;;;;;;4.73;3.97;;;8.20;63.30;;;;;;5080091;28;20458;-78
2021/01/20 12:58:40;;;;;;;5.63;3.77;;;8.10;63.80;;;;;;5086333;28;20655;-78